Biloxi, Mississippi
Current Conditions -  °F | °C
As of 7:58 AM on Wednesday 26 Nov 2014 (Local Time) from KBIX Reporting Station
Clear Clear  
Wind Chill: 44°   Ceiling: Unl
Heat Index: 44°   Visibility: 10mi
Dew Point: 33°   Wind: 1mph
Humidity: 65%   Direction: NA
Pressure: 30.27"   Gusts: NA
Location:  30.4°N, 88.97°W
Report Text: KBIX 261358Z AUTO VRB01KT 10SM CLR 07/01 A3027 RMK AO2 SLP254 T00660005
Loading
Personal Weather Stations






























Interactive Weather Map New forecast layout! Learn more

10-Day Weather Forecast

Advertisements
Track Severe Weather on mobile